sensor_id;sensor_type;location;lat;lon;timestamp;pressure;altitude;pressure_sealevel;temperature;humidity
41862;BME280;27537;57.134;-2.136;2022-11-25T00:01:08;98585.06;;;9.17;100.00
41862;BME280;27537;57.134;-2.136;2022-11-25T00:03:35;98566.84;;;9.03;100.00
41862;BME280;27537;57.134;-2.136;2022-11-25T00:06:10;98585.47;;;9.11;100.00
41862;BME280;27537;57.134;-2.136;2022-11-25T00:08:39;98585.56;;;9.22;100.00
41862;BME280;27537;57.134;-2.136;2022-11-25T00:11:06;98572.84;;;9.30;100.00
41862;BME280;27537;57.134;-2.136;2022-11-25T00:13:33;98572.59;;;9.08;100.00
41862;BME280;27537;57.134;-2.136;2022-11-25T00:16:05;98582.78;;;9.38;100.00
41862;BME280;27537;57.134;-2.136;2022-11-25T00:18:33;98573.97;;;9.13;100.00
41862;BME280;27537;57.134;-2.136;2022-11-25T00:21:11;98601.56;;;9.18;100.00
41862;BME280;27537;57.134;-2.136;2022-11-25T00:23:39;98608.78;;;9.40;100.00
41862;BME280;27537;57.134;-2.136;2022-11-25T00:26:11;98600.75;;;9.17;100.00
41862;BME280;27537;57.134;-2.136;2022-11-25T00:28:40;98602.38;;;9.05;100.00
41862;BME280;27537;57.134;-2.136;2022-11-25T00:31:15;98636.03;;;9.23;100.00
41862;BME280;27537;57.134;-2.136;2022-11-25T00:33:42;98635.41;;;9.19;100.00
41862;BME280;27537;57.134;-2.136;2022-11-25T00:36:48;98615.28;;;9.34;100.00
41862;BME280;27537;57.134;-2.136;2022-11-25T00:39:12;98628.41;;;9.20;100.00
41862;BME280;27537;57.134;-2.136;2022-11-25T00:41:40;98627.50;;;9.34;100.00
41862;BME280;27537;57.134;-2.136;2022-11-25T00:44:26;98614.94;;;9.26;100.00
41862;BME280;27537;57.134;-2.136;2022-11-25T00:47:12;98664.19;;;9.45;100.00
41862;BME280;27537;57.134;-2.136;2022-11-25T00:49:41;98643.81;;;9.10;100.00
41862;BME280;27537;57.134;-2.136;2022-11-25T00:52:11;98646.94;;;9.02;100.00
41862;BME280;27537;57.134;-2.136;2022-11-25T00:54:39;98652.34;;;8.99;100.00
41862;BME280;27537;57.134;-2.136;2022-11-25T00:57:05;98653.63;;;9.06;100.00
41862;BME280;27537;57.134;-2.136;2022-11-25T00:59:32;98671.06;;;9.06;100.00
41862;BME280;27537;57.134;-2.136;2022-11-25T01:01:59;98671.88;;;9.21;100.00
41862;BME280;27537;57.134;-2.136;2022-11-25T01:04:26;98690.16;;;9.06;100.00
41862;BME280;27537;57.134;-2.136;2022-11-25T01:06:53;98677.50;;;9.27;100.00
41862;BME280;27537;57.134;-2.136;2022-11-25T01:09:22;98689.13;;;9.36;100.00
41862;BME280;27537;57.134;-2.136;2022-11-25T01:11:49;98692.91;;;9.45;100.00
41862;BME280;27537;57.134;-2.136;2022-11-25T01:14:18;98689.38;;;9.46;100.00
41862;BME280;27537;57.134;-2.136;2022-11-25T01:16:45;98688.75;;;9.55;100.00
41862;BME280;27537;57.134;-2.136;2022-11-25T01:19:13;98665.66;;;9.49;100.00
41862;BME280;27537;57.134;-2.136;2022-11-25T01:21:40;98660.50;;;9.35;100.00
41862;BME280;27537;57.134;-2.136;2022-11-25T01:24:06;98653.53;;;9.48;100.00
41862;BME280;27537;57.134;-2.136;2022-11-25T01:26:34;98661.72;;;9.56;100.00
41862;BME280;27537;57.134;-2.136;2022-11-25T01:29:06;98638.03;;;9.19;100.00
41862;BME280;27537;57.134;-2.136;2022-11-25T01:31:35;98659.22;;;9.27;100.00
41862;BME280;27537;57.134;-2.136;2022-11-25T01:34:04;98664.66;;;9.24;100.00
41862;BME280;27537;57.134;-2.136;2022-11-25T01:36:32;98660.41;;;9.36;100.00
41862;BME280;27537;57.134;-2.136;2022-11-25T01:38:59;98655.53;;;9.44;100.00
41862;BME280;27537;57.134;-2.136;2022-11-25T01:41:29;98664.69;;;9.37;100.00
41862;BME280;27537;57.134;-2.136;2022-11-25T01:44:18;98670.56;;;9.41;100.00
41862;BME280;27537;57.134;-2.136;2022-11-25T01:49:37;98685.91;;;9.45;100.00
41862;BME280;27537;57.134;-2.136;2022-11-25T01:52:28;98678.28;;;9.42;100.00
41862;BME280;27537;57.134;-2.136;2022-11-25T01:55:26;98690.03;;;9.62;100.00
41862;BME280;27537;57.134;-2.136;2022-11-25T02:00:25;98683.09;;;9.48;100.00
41862;BME280;27537;57.134;-2.136;2022-11-25T02:02:53;98699.13;;;9.57;100.00
41862;BME280;27537;57.134;-2.136;2022-11-25T02:05:30;98713.53;;;9.62;100.00
41862;BME280;27537;57.134;-2.136;2022-11-25T02:08:01;98708.50;;;9.59;100.00
41862;BME280;27537;57.134;-2.136;2022-11-25T02:10:31;98703.19;;;9.61;100.00
41862;BME280;27537;57.134;-2.136;2022-11-25T02:12:58;98720.31;;;9.52;100.00
41862;BME280;27537;57.134;-2.136;2022-11-25T02:15:25;98721.19;;;9.38;100.00
41862;BME280;27537;57.134;-2.136;2022-11-25T02:17:54;98731.50;;;9.54;100.00
41862;BME280;27537;57.134;-2.136;2022-11-25T02:20:22;98741.63;;;9.46;100.00
41862;BME280;27537;57.134;-2.136;2022-11-25T02:23:09;98750.47;;;9.43;100.00
41862;BME280;27537;57.134;-2.136;2022-11-25T02:25:39;98772.38;;;9.55;100.00
41862;BME280;27537;57.134;-2.136;2022-11-25T02:28:14;98766.34;;;9.67;100.00
41862;BME280;27537;57.134;-2.136;2022-11-25T02:30:42;98751.56;;;9.26;100.00
41862;BME280;27537;57.134;-2.136;2022-11-25T02:33:09;98763.78;;;9.53;100.00
41862;BME280;27537;57.134;-2.136;2022-11-25T02:35:41;98775.69;;;9.44;100.00
41862;BME280;27537;57.134;-2.136;2022-11-25T02:38:19;98781.25;;;9.53;100.00
41862;BME280;27537;57.134;-2.136;2022-11-25T02:43:26;98788.13;;;9.26;100.00
41862;BME280;27537;57.134;-2.136;2022-11-25T02:46:03;98763.59;;;9.29;100.00
41862;BME280;27537;57.134;-2.136;2022-11-25T02:48:34;98803.53;;;9.17;100.00
41862;BME280;27537;57.134;-2.136;2022-11-25T02:51:25;98820.69;;;9.06;100.00
41862;BME280;27537;57.134;-2.136;2022-11-25T02:53:53;98830.19;;;9.22;100.00
41862;BME280;27537;57.134;-2.136;2022-11-25T02:56:22;98799.75;;;8.93;100.00
41862;BME280;27537;57.134;-2.136;2022-11-25T02:58:49;98845.94;;;9.35;100.00
41862;BME280;27537;57.134;-2.136;2022-11-25T03:01:15;98863.97;;;9.10;100.00
41862;BME280;27537;57.134;-2.136;2022-11-25T03:03:42;98865.53;;;9.13;100.00
41862;BME280;27537;57.134;-2.136;2022-11-25T03:06:09;98867.88;;;9.32;100.00
41862;BME280;27537;57.134;-2.136;2022-11-25T03:08:36;98877.00;;;9.39;100.00
41862;BME280;27537;57.134;-2.136;2022-11-25T03:11:04;98889.34;;;9.23;100.00
41862;BME280;27537;57.134;-2.136;2022-11-25T03:13:31;98899.78;;;9.23;100.00
41862;BME280;27537;57.134;-2.136;2022-11-25T03:15:57;98900.22;;;9.29;100.00
41862;BME280;27537;57.134;-2.136;2022-11-25T03:18:24;98911.44;;;9.17;100.00
41862;BME280;27537;57.134;-2.136;2022-11-25T03:20:52;98899.00;;;9.06;100.00
41862;BME280;27537;57.134;-2.136;2022-11-25T03:23:19;98899.31;;;9.30;100.00
41862;BME280;27537;57.134;-2.136;2022-11-25T03:25:46;98899.38;;;9.29;100.00
41862;BME280;27537;57.134;-2.136;2022-11-25T03:28:13;98909.09;;;9.12;100.00
41862;BME280;27537;57.134;-2.136;2022-11-25T03:30:40;98915.06;;;9.15;100.00
41862;BME280;27537;57.134;-2.136;2022-11-25T03:33:06;98912.75;;;9.24;100.00
41862;BME280;27537;57.134;-2.136;2022-11-25T03:35:33;98906.88;;;9.21;100.00
41862;BME280;27537;57.134;-2.136;2022-11-25T03:38:00;98931.56;;;9.15;100.00
41862;BME280;27537;57.134;-2.136;2022-11-25T03:40:27;98933.00;;;9.21;100.00
41862;BME280;27537;57.134;-2.136;2022-11-25T03:42:53;98936.50;;;9.05;100.00
41862;BME280;27537;57.134;-2.136;2022-11-25T03:45:20;98934.25;;;9.13;100.00
41862;BME280;27537;57.134;-2.136;2022-11-25T03:47:47;98936.59;;;9.04;100.00
41862;BME280;27537;57.134;-2.136;2022-11-25T03:50:14;98927.16;;;8.87;100.00
41862;BME280;27537;57.134;-2.136;2022-11-25T03:52:41;98946.47;;;8.99;100.00
41862;BME280;27537;57.134;-2.136;2022-11-25T03:55:09;98969.16;;;9.12;100.00
41862;BME280;27537;57.134;-2.136;2022-11-25T03:57:35;98972.31;;;9.03;100.00
41862;BME280;27537;57.134;-2.136;2022-11-25T04:00:02;98966.44;;;9.00;100.00
41862;BME280;27537;57.134;-2.136;2022-11-25T04:02:29;98967.34;;;8.84;100.00
41862;BME280;27537;57.134;-2.136;2022-11-25T04:04:56;98974.91;;;8.89;100.00
41862;BME280;27537;57.134;-2.136;2022-11-25T04:07:23;98956.03;;;8.69;100.00
41862;BME280;27537;57.134;-2.136;2022-11-25T04:09:50;98959.69;;;8.81;100.00
41862;BME280;27537;57.134;-2.136;2022-11-25T04:12:16;98985.94;;;8.78;100.00
41862;BME280;27537;57.134;-2.136;2022-11-25T04:15:02;99011.25;;;8.92;100.00
41862;BME280;27537;57.134;-2.136;2022-11-25T04:17:29;98996.78;;;8.86;100.00
41862;BME280;27537;57.134;-2.136;2022-11-25T04:19:56;99011.91;;;8.96;100.00
41862;BME280;27537;57.134;-2.136;2022-11-25T04:22:22;99023.56;;;8.90;100.00
41862;BME280;27537;57.134;-2.136;2022-11-25T04:24:49;99021.97;;;8.87;100.00
41862;BME280;27537;57.134;-2.136;2022-11-25T04:27:16;99023.91;;;8.84;100.00
41862;BME280;27537;57.134;-2.136;2022-11-25T04:29:45;99018.13;;;8.79;100.00
41862;BME280;27537;57.134;-2.136;2022-11-25T04:32:12;99026.94;;;8.76;100.00
41862;BME280;27537;57.134;-2.136;2022-11-25T04:34:39;99034.66;;;8.63;100.00
41862;BME280;27537;57.134;-2.136;2022-11-25T04:37:06;99048.19;;;8.70;100.00
41862;BME280;27537;57.134;-2.136;2022-11-25T04:39:33;99059.66;;;8.51;100.00
41862;BME280;27537;57.134;-2.136;2022-11-25T04:41:59;99039.38;;;8.57;100.00
41862;BME280;27537;57.134;-2.136;2022-11-25T04:44:44;99025.72;;;8.35;100.00
41862;BME280;27537;57.134;-2.136;2022-11-25T04:47:31;99014.47;;;8.19;100.00
41862;BME280;27537;57.134;-2.136;2022-11-25T04:49:58;99054.59;;;8.32;100.00
41862;BME280;27537;57.134;-2.136;2022-11-25T04:52:25;99074.94;;;8.42;100.00
41862;BME280;27537;57.134;-2.136;2022-11-25T04:54:52;99069.38;;;8.32;100.00
41862;BME280;27537;57.134;-2.136;2022-11-25T04:57:19;99073.13;;;8.44;100.00
41862;BME280;27537;57.134;-2.136;2022-11-25T04:59:46;99070.84;;;8.22;100.00
41862;BME280;27537;57.134;-2.136;2022-11-25T05:02:25;99094.03;;;8.10;100.00
41862;BME280;27537;57.134;-2.136;2022-11-25T05:04:54;99111.19;;;8.30;100.00
41862;BME280;27537;57.134;-2.136;2022-11-25T05:07:23;99108.00;;;8.25;100.00
41862;BME280;27537;57.134;-2.136;2022-11-25T05:09:50;99105.63;;;8.21;100.00
41862;BME280;27537;57.134;-2.136;2022-11-25T05:12:21;99117.91;;;8.18;100.00
41862;BME280;27537;57.134;-2.136;2022-11-25T05:14:48;99115.81;;;8.09;100.00
41862;BME280;27537;57.134;-2.136;2022-11-25T05:17:17;99103.81;;;7.89;100.00
41862;BME280;27537;57.134;-2.136;2022-11-25T05:19:44;99121.75;;;7.95;100.00
41862;BME280;27537;57.134;-2.136;2022-11-25T05:22:13;99137.13;;;8.00;100.00
41862;BME280;27537;57.134;-2.136;2022-11-25T05:24:40;99142.22;;;8.19;100.00
41862;BME280;27537;57.134;-2.136;2022-11-25T05:27:07;99145.09;;;8.14;100.00
41862;BME280;27537;57.134;-2.136;2022-11-25T05:29:34;99141.16;;;7.90;100.00
41862;BME280;27537;57.134;-2.136;2022-11-25T05:32:02;99179.16;;;8.27;100.00
41862;BME280;27537;57.134;-2.136;2022-11-25T05:34:29;99165.69;;;8.19;100.00
41862;BME280;27537;57.134;-2.136;2022-11-25T05:36:56;99142.94;;;8.05;100.00
41862;BME280;27537;57.134;-2.136;2022-11-25T05:39:23;99174.28;;;8.37;100.00
41862;BME280;27537;57.134;-2.136;2022-11-25T05:41:50;99174.72;;;8.29;100.00
41862;BME280;27537;57.134;-2.136;2022-11-25T05:44:17;99144.63;;;8.06;100.00
41862;BME280;27537;57.134;-2.136;2022-11-25T05:46:48;99167.97;;;8.25;100.00
41862;BME280;27537;57.134;-2.136;2022-11-25T05:49:17;99185.81;;;8.33;100.00
41862;BME280;27537;57.134;-2.136;2022-11-25T05:51:44;99169.66;;;8.26;100.00
41862;BME280;27537;57.134;-2.136;2022-11-25T05:54:10;99197.94;;;8.34;100.00
41862;BME280;27537;57.134;-2.136;2022-11-25T05:56:37;99203.41;;;8.29;100.00
41862;BME280;27537;57.134;-2.136;2022-11-25T05:59:04;99210.09;;;8.17;100.00
41862;BME280;27537;57.134;-2.136;2022-11-25T06:01:31;99204.72;;;8.21;100.00
41862;BME280;27537;57.134;-2.136;2022-11-25T06:04:03;99223.72;;;8.23;100.00
41862;BME280;27537;57.134;-2.136;2022-11-25T06:06:30;99212.28;;;7.92;100.00
41862;BME280;27537;57.134;-2.136;2022-11-25T06:08:58;99218.47;;;7.89;100.00
41862;BME280;27537;57.134;-2.136;2022-11-25T06:11:24;99219.78;;;7.98;100.00
41862;BME280;27537;57.134;-2.136;2022-11-25T06:13:51;99227.59;;;7.98;100.00
41862;BME280;27537;57.134;-2.136;2022-11-25T06:16:20;99234.88;;;7.91;100.00
41862;BME280;27537;57.134;-2.136;2022-11-25T06:18:48;99212.28;;;7.74;100.00
41862;BME280;27537;57.134;-2.136;2022-11-25T06:21:16;99239.03;;;7.95;100.00
41862;BME280;27537;57.134;-2.136;2022-11-25T06:23:43;99245.97;;;7.95;100.00
41862;BME280;27537;57.134;-2.136;2022-11-25T06:26:21;99245.53;;;8.04;100.00
41862;BME280;27537;57.134;-2.136;2022-11-25T06:28:52;99251.13;;;7.96;100.00
41862;BME280;27537;57.134;-2.136;2022-11-25T06:31:21;99248.22;;;7.85;100.00
41862;BME280;27537;57.134;-2.136;2022-11-25T06:33:49;99251.28;;;7.76;100.00
41862;BME280;27537;57.134;-2.136;2022-11-25T06:36:16;99254.19;;;7.87;100.00
41862;BME280;27537;57.134;-2.136;2022-11-25T06:38:45;99251.75;;;7.84;100.00
41862;BME280;27537;57.134;-2.136;2022-11-25T06:41:13;99272.13;;;7.76;100.00
41862;BME280;27537;57.134;-2.136;2022-11-25T06:43:40;99284.16;;;7.78;100.00
41862;BME280;27537;57.134;-2.136;2022-11-25T06:46:09;99283.41;;;7.76;100.00
41862;BME280;27537;57.134;-2.136;2022-11-25T06:48:36;99290.81;;;7.84;100.00
41862;BME280;27537;57.134;-2.136;2022-11-25T06:51:06;99287.47;;;7.82;100.00
41862;BME280;27537;57.134;-2.136;2022-11-25T06:53:33;99296.03;;;7.84;100.00
41862;BME280;27537;57.134;-2.136;2022-11-25T06:58:39;99304.44;;;7.54;100.00
41862;BME280;27537;57.134;-2.136;2022-11-25T07:03:42;99310.75;;;7.68;100.00
41862;BME280;27537;57.134;-2.136;2022-11-25T07:06:11;99314.44;;;7.81;100.00
41862;BME280;27537;57.134;-2.136;2022-11-25T07:08:39;99318.41;;;7.71;100.00
41862;BME280;27537;57.134;-2.136;2022-11-25T07:11:33;99325.28;;;7.72;100.00
41862;BME280;27537;57.134;-2.136;2022-11-25T07:14:04;99329.69;;;7.52;100.00
41862;BME280;27537;57.134;-2.136;2022-11-25T07:16:32;99339.59;;;7.46;100.00
41862;BME280;27537;57.134;-2.136;2022-11-25T07:19:00;99352.25;;;7.34;100.00
41862;BME280;27537;57.134;-2.136;2022-11-25T07:21:28;99348.38;;;7.43;100.00
41862;BME280;27537;57.134;-2.136;2022-11-25T07:23:58;99352.41;;;7.31;100.00
41862;BME280;27537;57.134;-2.136;2022-11-25T07:26:28;99391.31;;;7.53;100.00
41862;BME280;27537;57.134;-2.136;2022-11-25T07:29:00;99384.63;;;7.29;100.00
41862;BME280;27537;57.134;-2.136;2022-11-25T07:31:29;99406.31;;;7.48;100.00
41862;BME280;27537;57.134;-2.136;2022-11-25T07:34:08;99404.84;;;7.62;100.00
41862;BME280;27537;57.134;-2.136;2022-11-25T07:36:36;99367.66;;;7.20;100.00
41862;BME280;27537;57.134;-2.136;2022-11-25T07:39:06;99383.78;;;7.47;100.00
41862;BME280;27537;57.134;-2.136;2022-11-25T07:41:34;99410.44;;;7.52;100.00
41862;BME280;27537;57.134;-2.136;2022-11-25T07:44:03;99412.28;;;7.50;100.00
41862;BME280;27537;57.134;-2.136;2022-11-25T07:46:32;99413.84;;;7.35;100.00
41862;BME280;27537;57.134;-2.136;2022-11-25T07:49:02;99406.94;;;7.15;100.00
41862;BME280;27537;57.134;-2.136;2022-11-25T07:51:40;99424.19;;;7.37;100.00
41862;BME280;27537;57.134;-2.136;2022-11-25T07:54:09;99426.16;;;7.32;100.00
41862;BME280;27537;57.134;-2.136;2022-11-25T07:56:39;99440.44;;;7.42;100.00
41862;BME280;27537;57.134;-2.136;2022-11-25T07:59:08;99427.28;;;7.26;100.00
41862;BME280;27537;57.134;-2.136;2022-11-25T08:01:35;99396.25;;;7.01;100.00
41862;BME280;27537;57.134;-2.136;2022-11-25T08:04:02;99418.50;;;7.08;100.00
41862;BME280;27537;57.134;-2.136;2022-11-25T08:06:30;99441.88;;;7.10;100.00
41862;BME280;27537;57.134;-2.136;2022-11-25T08:08:57;99449.53;;;7.13;100.00
41862;BME280;27537;57.134;-2.136;2022-11-25T08:11:27;99431.38;;;7.11;100.00
41862;BME280;27537;57.134;-2.136;2022-11-25T08:13:54;99420.56;;;7.01;100.00
41862;BME280;27537;57.134;-2.136;2022-11-25T08:16:23;99446.75;;;7.17;100.00
41862;BME280;27537;57.134;-2.136;2022-11-25T08:18:53;99426.69;;;7.19;100.00
41862;BME280;27537;57.134;-2.136;2022-11-25T08:21:20;99461.66;;;7.33;100.00
41862;BME280;27537;57.134;-2.136;2022-11-25T08:23:47;99460.00;;;7.32;100.00
41862;BME280;27537;57.134;-2.136;2022-11-25T08:26:20;99439.59;;;7.22;100.00
41862;BME280;27537;57.134;-2.136;2022-11-25T08:28:47;99436.63;;;7.30;100.00
41862;BME280;27537;57.134;-2.136;2022-11-25T08:31:26;99472.13;;;7.52;100.00
41862;BME280;27537;57.134;-2.136;2022-11-25T08:33:54;99483.72;;;7.45;100.00
41862;BME280;27537;57.134;-2.136;2022-11-25T08:36:21;99501.00;;;7.47;100.00
41862;BME280;27537;57.134;-2.136;2022-11-25T08:38:50;99493.09;;;7.49;100.00
41862;BME280;27537;57.134;-2.136;2022-11-25T08:41:23;99502.19;;;7.78;100.00
41862;BME280;27537;57.134;-2.136;2022-11-25T08:43:51;99456.28;;;7.56;100.00
41862;BME280;27537;57.134;-2.136;2022-11-25T08:46:23;99467.63;;;7.74;100.00
41862;BME280;27537;57.134;-2.136;2022-11-25T08:48:50;99512.59;;;8.16;100.00
41862;BME280;27537;57.134;-2.136;2022-11-25T08:51:21;99523.19;;;7.94;100.00
41862;BME280;27537;57.134;-2.136;2022-11-25T08:53:48;99494.94;;;7.66;100.00
41862;BME280;27537;57.134;-2.136;2022-11-25T08:56:18;99513.69;;;7.74;100.00
41862;BME280;27537;57.134;-2.136;2022-11-25T08:58:51;99493.38;;;7.43;100.00
41862;BME280;27537;57.134;-2.136;2022-11-25T09:01:19;99525.28;;;7.48;100.00
41862;BME280;27537;57.134;-2.136;2022-11-25T09:03:48;99523.38;;;7.51;100.00
41862;BME280;27537;57.134;-2.136;2022-11-25T09:06:16;99509.72;;;7.26;100.00
41862;BME280;27537;57.134;-2.136;2022-11-25T09:08:43;99541.13;;;7.62;100.00
41862;BME280;27537;57.134;-2.136;2022-11-25T09:11:11;99553.81;;;7.70;100.00
41862;BME280;27537;57.134;-2.136;2022-11-25T09:13:38;99536.50;;;7.69;100.00
41862;BME280;27537;57.134;-2.136;2022-11-25T09:16:05;99520.44;;;7.78;100.00
41862;BME280;27537;57.134;-2.136;2022-11-25T09:18:32;99540.00;;;7.68;100.00
41862;BME280;27537;57.134;-2.136;2022-11-25T09:21:06;99550.50;;;7.66;100.00
41862;BME280;27537;57.134;-2.136;2022-11-25T09:23:34;99519.34;;;7.44;100.00
41862;BME280;27537;57.134;-2.136;2022-11-25T09:26:00;99561.72;;;7.87;100.00
41862;BME280;27537;57.134;-2.136;2022-11-25T09:28:27;99504.69;;;7.41;100.00
41862;BME280;27537;57.134;-2.136;2022-11-25T09:30:54;99542.06;;;7.80;100.00
41862;BME280;27537;57.134;-2.136;2022-11-25T09:33:21;99562.06;;;7.79;100.00
41862;BME280;27537;57.134;-2.136;2022-11-25T09:35:48;99539.22;;;7.66;100.00
41862;BME280;27537;57.134;-2.136;2022-11-25T09:38:16;99545.44;;;7.82;100.00
41862;BME280;27537;57.134;-2.136;2022-11-25T09:40:53;99571.06;;;7.91;100.00
41862;BME280;27537;57.134;-2.136;2022-11-25T09:43:52;99576.88;;;7.98;100.00
41862;BME280;27537;57.134;-2.136;2022-11-25T09:57:02;99574.00;;;8.04;100.00
41862;BME280;27537;57.134;-2.136;2022-11-25T10:02:34;99591.91;;;8.50;100.00
41862;BME280;27537;57.134;-2.136;2022-11-25T10:05:18;99591.03;;;8.49;100.00
41862;BME280;27537;57.134;-2.136;2022-11-25T10:07:51;99539.53;;;8.16;100.00
41862;BME280;27537;57.134;-2.136;2022-11-25T10:10:25;99602.22;;;8.70;100.00
41862;BME280;27537;57.134;-2.136;2022-11-25T10:12:54;99558.00;;;8.50;100.00
41862;BME280;27537;57.134;-2.136;2022-11-25T10:17:57;99554.25;;;8.55;100.00
41862;BME280;27537;57.134;-2.136;2022-11-25T10:20:44;99584.91;;;8.69;100.00
41862;BME280;27537;57.134;-2.136;2022-11-25T10:23:20;99597.53;;;8.96;100.00
41862;BME280;27537;57.134;-2.136;2022-11-25T10:26:12;99557.88;;;8.88;100.00
41862;BME280;27537;57.134;-2.136;2022-11-25T10:28:43;99597.00;;;9.24;100.00
41862;BME280;27537;57.134;-2.136;2022-11-25T10:31:19;99572.63;;;8.89;100.00
41862;BME280;27537;57.134;-2.136;2022-11-25T10:33:51;99606.28;;;9.12;100.00
41862;BME280;27537;57.134;-2.136;2022-11-25T10:36:31;99601.69;;;9.35;100.00
41862;BME280;27537;57.134;-2.136;2022-11-25T10:39:06;99596.38;;;9.19;100.00
41862;BME280;27537;57.134;-2.136;2022-11-25T10:41:49;99609.50;;;9.18;100.00
41862;BME280;27537;57.134;-2.136;2022-11-25T10:44:26;99632.16;;;9.00;100.00
41862;BME280;27537;57.134;-2.136;2022-11-25T10:53:09;99602.91;;;9.10;100.00
41862;BME280;27537;57.134;-2.136;2022-11-25T10:55:37;99603.19;;;9.04;100.00
41862;BME280;27537;57.134;-2.136;2022-11-25T10:58:39;99614.66;;;9.19;100.00
41862;BME280;27537;57.134;-2.136;2022-11-25T11:03:52;99590.00;;;9.07;100.00
41862;BME280;27537;57.134;-2.136;2022-11-25T11:06:41;99579.47;;;9.09;100.00
41862;BME280;27537;57.134;-2.136;2022-11-25T11:09:31;99618.66;;;9.44;100.00
41862;BME280;27537;57.134;-2.136;2022-11-25T11:12:11;99619.28;;;9.31;100.00
41862;BME280;27537;57.134;-2.136;2022-11-25T11:14:39;99603.28;;;9.20;100.00
41862;BME280;27537;57.134;-2.136;2022-11-25T11:17:23;99620.94;;;9.32;100.00
41862;BME280;27537;57.134;-2.136;2022-11-25T11:22:33;99610.25;;;9.02;100.00
41862;BME280;27537;57.134;-2.136;2022-11-25T11:27:45;99602.91;;;9.10;100.00
41862;BME280;27537;57.134;-2.136;2022-11-25T11:30:20;99622.38;;;8.86;100.00
41862;BME280;27537;57.134;-2.136;2022-11-25T11:33:05;99626.25;;;8.96;100.00
41862;BME280;27537;57.134;-2.136;2022-11-25T11:35:54;99641.53;;;9.04;100.00
41862;BME280;27537;57.134;-2.136;2022-11-25T11:38:50;99592.19;;;8.80;100.00
41862;BME280;27537;57.134;-2.136;2022-11-25T11:44:08;99615.19;;;9.08;100.00
41862;BME280;27537;57.134;-2.136;2022-11-25T11:46:54;99614.31;;;8.90;100.00
41862;BME280;27537;57.134;-2.136;2022-11-25T11:52:33;99648.31;;;9.43;100.00
41862;BME280;27537;57.134;-2.136;2022-11-25T11:55:37;99668.06;;;9.48;100.00
41862;BME280;27537;57.134;-2.136;2022-11-25T11:58:12;99660.53;;;9.25;100.00
41862;BME280;27537;57.134;-2.136;2022-11-25T12:01:03;99663.19;;;9.23;100.00
41862;BME280;27537;57.134;-2.136;2022-11-25T12:06:28;99666.88;;;9.72;100.00
41862;BME280;27537;57.134;-2.136;2022-11-25T12:09:03;99670.50;;;9.86;100.00
41862;BME280;27537;57.134;-2.136;2022-11-25T12:11:36;99681.78;;;9.87;100.00
41862;BME280;27537;57.134;-2.136;2022-11-25T12:16:52;99657.13;;;9.58;100.00
41862;BME280;27537;57.134;-2.136;2022-11-25T12:19:51;99646.38;;;9.81;100.00
41862;BME280;27537;57.134;-2.136;2022-11-25T12:27:46;99675.03;;;10.16;100.00
41862;BME280;27537;57.134;-2.136;2022-11-25T12:35:50;99690.50;;;10.54;100.00
41862;BME280;27537;57.134;-2.136;2022-11-25T12:38:23;99681.53;;;10.42;100.00
41862;BME280;27537;57.134;-2.136;2022-11-25T12:43:45;99705.22;;;10.06;100.00
41862;BME280;27537;57.134;-2.136;2022-11-25T12:49:14;99703.88;;;10.32;100.00
41862;BME280;27537;57.134;-2.136;2022-11-25T13:00:08;99663.22;;;10.25;100.00
41862;BME280;27537;57.134;-2.136;2022-11-25T13:03:44;99671.25;;;10.39;100.00
41862;BME280;27537;57.134;-2.136;2022-11-25T13:16:52;99749.34;;;10.47;100.00
41862;BME280;27537;57.134;-2.136;2022-11-25T13:19:20;99744.06;;;10.14;100.00
41862;BME280;27537;57.134;-2.136;2022-11-25T13:21:58;99747.44;;;10.33;100.00
41862;BME280;27537;57.134;-2.136;2022-11-25T13:26:54;99747.94;;;10.57;100.00
41862;BME280;27537;57.134;-2.136;2022-11-25T13:32:11;99759.69;;;10.33;100.00
41862;BME280;27537;57.134;-2.136;2022-11-25T13:37:52;99758.78;;;10.50;100.00
41862;BME280;27537;57.134;-2.136;2022-11-25T13:42:52;99755.47;;;10.46;100.00
41862;BME280;27537;57.134;-2.136;2022-11-25T13:45:37;99786.47;;;10.38;100.00
41862;BME280;27537;57.134;-2.136;2022-11-25T13:48:19;99785.91;;;10.49;100.00
41862;BME280;27537;57.134;-2.136;2022-11-25T13:50:48;99792.00;;;10.65;100.00
41862;BME280;27537;57.134;-2.136;2022-11-25T13:53:35;99788.38;;;10.52;100.00
41862;BME280;27537;57.134;-2.136;2022-11-25T13:56:24;99801.78;;;10.61;100.00
41862;BME280;27537;57.134;-2.136;2022-11-25T14:01:38;99804.16;;;10.33;100.00
41862;BME280;27537;57.134;-2.136;2022-11-25T14:04:13;99803.66;;;10.24;100.00
41862;BME280;27537;57.134;-2.136;2022-11-25T14:07:03;99805.38;;;10.25;100.00
41862;BME280;27537;57.134;-2.136;2022-11-25T14:15:03;99781.38;;;10.35;100.00
41862;BME280;27537;57.134;-2.136;2022-11-25T14:20:43;99822.47;;;10.33;100.00
41862;BME280;27537;57.134;-2.136;2022-11-25T14:26:09;99839.47;;;10.24;100.00
41862;BME280;27537;57.134;-2.136;2022-11-25T14:32:03;99856.75;;;10.26;100.00
41862;BME280;27537;57.134;-2.136;2022-11-25T14:37:19;99826.22;;;9.92;100.00
41862;BME280;27537;57.134;-2.136;2022-11-25T14:39:54;99863.63;;;10.12;100.00
41862;BME280;27537;57.134;-2.136;2022-11-25T14:42:22;99863.22;;;10.19;100.00
41862;BME280;27537;57.134;-2.136;2022-11-25T14:44:53;99847.00;;;9.95;100.00
41862;BME280;27537;57.134;-2.136;2022-11-25T14:47:26;99863.75;;;10.08;100.00
41862;BME280;27537;57.134;-2.136;2022-11-25T14:49:54;99869.53;;;9.98;100.00
41862;BME280;27537;57.134;-2.136;2022-11-25T14:52:43;99830.47;;;9.58;100.00
41862;BME280;27537;57.134;-2.136;2022-11-25T14:55:23;99884.19;;;9.83;100.00
41862;BME280;27537;57.134;-2.136;2022-11-25T14:57:52;99871.84;;;9.67;100.00
41862;BME280;27537;57.134;-2.136;2022-11-25T15:00:19;99883.22;;;9.66;100.00
41862;BME280;27537;57.134;-2.136;2022-11-25T15:03:03;99870.06;;;9.68;100.00
41862;BME280;27537;57.134;-2.136;2022-11-25T15:05:35;99907.72;;;9.83;100.00
41862;BME280;27537;57.134;-2.136;2022-11-25T15:08:09;99903.53;;;9.79;100.00
41862;BME280;27537;57.134;-2.136;2022-11-25T15:10:57;99925.16;;;9.82;100.00
41862;BME280;27537;57.134;-2.136;2022-11-25T15:13:40;99898.56;;;9.55;100.00
41862;BME280;27537;57.134;-2.136;2022-11-25T15:16:12;99934.38;;;9.72;100.00